Time;durP1;ratioP1;P1;durP2;ratioP2;P2;SDS_P1;SDS_P2;PMS_P1;PMS_P2;Temp;Humidity;BMP_temperature;BMP_pressure;BME280_temperature;BME280_humidity;BME280_pressure;Samples;Min_cycle;Max_cycle;Signal;HPM_P1;HPM_P2
2021/07/12 01:34:43;;;;;;;;;;;;;;;;;;;;;
2021/07/12 02:05:46;;;;;;;112.05;55.85;;;;;;;15.10;89.98;101503.50;5978759;24;20092;-87
2021/07/12 02:19:33;;;;;;;;;;;;;;;;;;;;;
2021/07/12 05:33:20;;;;;;;48.17;34.55;;;;;;;18.47;81.40;101346.81;5931416;24;20020;-85
2021/07/12 06:58:12;;;;;;;35.40;28.05;;;;;;;21.02;71.27;101331.91;5917609;24;20083;-81
2021/07/12 07:03:45;;;;;;;30.05;24.23;;;;;;;21.59;69.98;101338.81;6013276;23;20085;-83
2021/07/12 07:06:59;;;;;;;32.65;25.33;;;;;;;21.03;69.95;101331.88;6064395;23;20022;-83
2021/07/12 07:09:32;;;;;;;;;;;;;;;20.98;69.72;101333.75;6118349;23;20025;-83
2021/07/12 07:11:57;;;;;;;31.95;23.05;;;;;;;20.82;70.61;101322.50;6125683;23;19931;-79
2021/07/12 07:14:55;;;;;;;30.27;23.98;;;;;;;20.80;70.73;101324.28;6125466;23;20381;-80
2021/07/12 07:17:48;;;;;;;30.92;23.45;;;;;;;20.67;71.20;101317.38;6123141;23;20018;-83
2021/07/12 07:23:50;;;;;;;28.23;22.58;;;;;;;20.74;71.16;101312.81;6091109;23;20010;-85
2021/07/12 07:26:23;;;;;;;27.98;22.40;;;;;;;20.97;71.66;101312.38;6124402;23;20426;-84
2021/07/12 07:29:23;;;;;;;;;;;;;;;;;;;;;
2021/07/12 07:32:25;;;;;;;30.63;23.63;;;;;;;21.33;69.54;101302.75;6124665;23;20016;-84
2021/07/12 07:34:57;;;;;;;33.95;23.33;;;;;;;21.45;69.01;101301.59;6124579;23;19990;-82
2021/07/12 07:37:22;;;;;;;25.55;21.65;;;;;;;21.60;68.62;101311.13;6124174;23;20025;-81
2021/07/12 07:39:48;;;;;;;30.23;22.88;;;;;;;21.78;67.95;101301.78;6118969;23;20425;-80
2021/07/12 07:42:14;;;;;;;30.33;22.52;;;;;;;22.22;66.84;101299.88;6121626;23;20006;-84
2021/07/12 07:45:28;;;;;;;25.80;21.05;;;;;;;22.69;66.25;101288.88;6123439;23;20014;-82
2021/07/12 07:47:53;;;;;;;25.83;22.63;;;;;;;23.12;64.60;101292.16;6122896;23;20337;-83
2021/07/12 08:16:29;;;;;;;;;;;;;;;;;;;;;
2021/07/12 08:51:51;;;;;;;;;;;;;;;;;;;;;
2021/07/12 10:20:41;;;;;;;7.72;5.28;;;;;;;25.09;52.60;101197.84;5685874;25;20028;-86
2021/07/12 11:12:08;;;;;;;6.75;3.50;;;;;;;26.72;48.83;101186.63;6095518;23;20015;-86
2021/07/12 11:16:10;;;;;;;5.53;4.25;;;;;;;26.17;48.41;101188.13;6087259;23;20048;-86
2021/07/12 11:18:35;;;;;;;6.93;4.38;;;;;;;25.95;48.44;101188.16;6093196;23;20009;-82
2021/07/12 11:29:25;;;;;;;3.78;2.70;;;;;;;25.92;49.36;101183.75;5967845;23;20087;-87
2021/07/12 11:35:25;;;;;;;7.55;4.55;;;;;;;25.84;48.83;101180.50;6119301;23;20041;-85
2021/07/12 11:37:51;;;;;;;4.65;3.78;;;;;;;25.45;49.31;101181.22;6112934;23;20562;-82
2021/07/12 11:40:52;;;;;;;;;;;;;;;;;;;;;
2021/07/12 11:47:32;;;;;;;;;;;;;;;;;;;;;
2021/07/12 11:51:07;;;;;;;;;;;;;;;;;;;;;
2021/07/12 11:53:25;;;;;;;4.95;4.10;;;;;;;25.11;50.40;101184.31;5924393;24;20096;-82
2021/07/12 11:56:28;;;;;;;8.20;4.18;;;;;;;24.95;51.15;101174.16;5943093;24;20021;-85
2021/07/12 12:03:13;;;;;;;3.50;3.20;;;;;;;24.52;51.58;101176.59;5950660;23;20091;-81
2021/07/12 12:06:06;;;;;;;5.35;3.95;;;;;;;24.29;53.92;101184.63;5997952;23;20015;-85
2021/07/12 12:16:48;;;;;;;;;;;;;;;;;;;;;
2021/07/12 12:20:03;;;;;;;3.95;3.55;;;;;;;23.90;54.80;101151.88;5857037;24;20034;-83
2021/07/12 14:11:42;;;;;;;3.42;3.10;;;;;;;24.98;49.97;101084.31;6153066;23;20028;-82
2021/07/12 14:21:42;;;;;;;16.48;13.60;;;;;;;23.72;60.38;101096.03;6158604;23;20002;-81
2021/07/12 14:24:08;;;;;;;19.65;15.98;;;;;;;23.19;62.22;101100.47;6155805;23;20017;-84
2021/07/12 14:27:17;;;;;;;22.33;16.98;;;;;;;22.89;63.62;101100.47;6128526;23;20009;-87
2021/07/12 14:30:34;;;;;;;17.80;14.98;;;;;;;22.54;65.21;101093.47;6157133;23;20032;-84
2021/07/12 14:33:30;;;;;;;14.00;12.50;;;;;;;22.41;63.39;101090.28;6157429;23;20075;-90
2021/07/12 14:36:22;;;;;;;15.15;12.60;;;;;;;22.32;62.97;101091.38;6130064;23;20006;-82
2021/07/12 14:38:55;;;;;;;12.18;10.88;;;;;;;22.22;63.04;101097.94;6122817;23;20024;-81
2021/07/12 14:45:32;;;;;;;8.55;7.75;;;;;;;22.02;62.66;101109.22;6122327;23;20017;-80
2021/07/12 14:52:21;;;;;;;11.95;8.57;;;;;;;22.00;63.90;101111.03;5998774;23;20004;-80
2021/07/12 14:54:47;;;;;;;13.15;9.18;;;;;;;22.00;64.74;101108.34;5972674;23;20035;-78
2021/07/12 14:57:17;;;;;;;10.15;9.20;;;;;;;21.94;66.30;101108.53;5997727;23;20380;-80
2021/07/12 14:59:43;;;;;;;12.18;10.95;;;;;;;21.85;67.60;101105.19;5999353;23;20018;-78
2021/07/12 15:02:29;;;;;;;13.10;11.80;;;;;;;21.73;68.33;101105.47;6046898;23;20009;-79
2021/07/12 15:04:55;;;;;;;18.10;14.95;;;;;;;21.59;70.24;101099.63;6144410;23;20013;-81
2021/07/12 15:07:23;;;;;;;20.88;15.32;;;;;;;21.56;70.37;101106.78;6144865;23;20028;-81
2021/07/12 15:09:48;;;;;;;17.88;15.18;;;;;;;21.56;70.02;101101.44;6144550;23;20009;-79
2021/07/12 15:12:14;;;;;;;17.50;15.20;;;;;;;21.62;70.61;101103.06;6147771;23;20081;-81
2021/07/12 15:14:47;;;;;;;20.73;16.45;;;;;;;21.69;71.94;101098.44;6143763;23;20002;-80
2021/07/12 15:17:13;;;;;;;;;;;;;;;21.68;73.16;101094.91;6147113;23;20013;-81
2021/07/12 15:19:38;;;;;;;18.80;15.93;;;;;;;21.74;71.68;101099.22;6147029;23;19920;-80
2021/07/12 15:22:05;;;;;;;17.27;15.48;;;;;;;21.84;71.32;101097.16;6146828;23;20037;-81
2021/07/12 15:24:31;;;;;;;16.85;15.15;;;;;;;21.97;71.44;101098.59;6144688;23;20012;-80
2021/07/12 15:26:56;;;;;;;18.15;15.68;;;;;;;22.09;70.56;101089.34;6147623;23;20253;-79
2021/07/12 15:29:23;;;;;;;17.25;15.20;;;;;;;22.27;70.16;101092.44;6146580;23;19997;-83
2021/07/12 15:31:49;;;;;;;17.52;14.98;;;;;;;22.41;69.37;101084.94;6147452;23;20001;-76
2021/07/12 15:34:17;;;;;;;16.92;15.18;;;;;;;22.55;69.14;101088.06;6144537;23;20484;-79
2021/07/12 15:36:43;;;;;;;19.13;15.60;;;;;;;22.67;68.01;101085.97;6146036;23;20006;-81
2021/07/12 15:39:08;;;;;;;20.30;16.38;;;;;;;22.81;68.52;101091.78;6146906;23;20051;-82
2021/07/12 15:41:34;;;;;;;18.60;16.30;;;;;;;22.77;68.12;101094.59;6146126;23;20009;-79
2021/07/12 15:43:59;;;;;;;15.07;13.48;;;;;;;22.79;67.40;101090.97;6146545;23;20010;-79
2021/07/12 15:46:25;;;;;;;17.17;14.32;;;;;;;22.80;68.19;101089.13;6151223;23;20324;-81
2021/07/12 15:48:50;;;;;;;15.95;14.13;;;;;;;22.83;68.29;101094.41;6160504;23;20020;-80
2021/07/12 15:51:16;;;;;;;14.30;12.70;;;;;;;22.89;67.87;101091.53;6153572;23;20005;-80
2021/07/12 15:54:04;;;;;;;17.20;14.23;;;;;;;22.80;69.76;101091.81;6151424;23;20018;-81
2021/07/12 15:56:29;;;;;;;15.38;13.38;;;;;;;22.64;68.23;101091.41;6151216;23;20077;-79
2021/07/12 15:58:55;;;;;;;17.42;12.32;;;;;;;22.55;68.10;101082.69;6151424;23;20500;-81
2021/07/12 16:01:23;;;;;;;11.98;10.57;;;;;;;22.44;66.81;101086.66;6152611;23;20018;-79
2021/07/12 16:03:49;;;;;;;11.30;9.77;;;;;;;22.36;66.73;101081.50;6151382;23;20101;-81
2021/07/12 16:06:17;;;;;;;11.80;10.60;;;;;;;22.28;67.48;101086.16;6151996;23;20006;-80
2021/07/12 16:08:43;;;;;;;13.75;11.55;;;;;;;22.27;67.91;101081.72;6124653;23;20016;-80
2021/07/12 16:11:09;;;;;;;13.40;11.63;;;;;;;22.16;68.59;101090.06;6156833;23;20013;-83
2021/07/12 16:13:38;;;;;;;15.13;11.80;;;;;;;22.13;71.01;101088.34;6153223;23;20021;-82
2021/07/12 16:16:17;;;;;;;12.00;10.80;;;;;;;22.15;69.23;101094.56;6154594;23;20002;-84
2021/07/12 16:18:43;;;;;;;12.75;9.48;;;;;;;22.15;68.45;101094.56;6154660;23;20130;-80
2021/07/12 16:21:34;;;;;;;13.10;11.40;;;;;;;22.18;68.75;101093.59;6153581;23;20407;-84
2021/07/12 16:24:00;;;;;;;11.70;10.60;;;;;;;22.05;69.89;101101.09;6139567;23;20006;-82
2021/07/12 16:26:48;;;;;;;12.48;11.18;;;;;;;22.01;69.99;101102.09;6156209;23;20012;-83
2021/07/12 16:29:56;;;;;;;12.90;11.43;;;;;;;22.09;70.28;101100.06;6154574;23;20075;-84
2021/07/12 16:33:34;;;;;;;15.27;11.98;;;;;;;22.17;69.53;101098.06;6156513;23;20013;-85
2021/07/12 16:36:06;;;;;;;15.82;13.18;;;;;;;22.14;69.64;101094.56;6068783;23;20017;-82
2021/07/12 16:38:52;;;;;;;13.93;12.05;;;;;;;22.04;69.83;101096.63;6154899;23;20020;-82
2021/07/12 16:41:24;;;;;;;17.60;12.80;;;;;;;21.88;69.95;101097.06;6154903;23;20016;-84
2021/07/12 16:43:50;;;;;;;19.42;13.10;;;;;;;21.86;70.65;101093.53;6154970;23;20006;-83
2021/07/12 16:46:16;;;;;;;16.95;11.15;;;;;;;21.88;70.58;101089.03;6154301;23;20013;-82
2021/07/12 16:52:27;;;;;;;29.73;13.60;;;;;;;21.67;71.37;101081.53;6008424;23;20051;-83
2021/07/12 16:54:53;;;;;;;27.17;14.50;;;;;;;21.69;72.29;101079.69;6006756;23;20034;-82
2021/07/12 16:57:21;;;;;;;20.55;11.65;;;;;;;21.71;71.71;101080.53;6078561;23;20429;-82
2021/07/12 16:59:46;;;;;;;20.52;10.13;;;;;;;21.70;71.18;101076.09;6153573;23;20013;-81
2021/07/12 17:02:12;;;;;;;18.65;11.05;;;;;;;21.67;70.91;101082.41;6153468;23;20321;-83
2021/07/12 17:04:38;;;;;;;20.48;9.82;;;;;;;21.53;70.34;101079.22;6154591;23;20429;-82
2021/07/12 17:07:23;;;;;;;19.13;9.88;;;;;;;21.58;69.98;101081.78;6154266;23;20077;-81
2021/07/12 17:10:46;;;;;;;21.30;8.30;;;;;;;21.48;70.31;101087.31;6118741;23;20503;-84
2021/07/12 17:13:23;;;;;;;19.05;8.68;;;;;;;21.35;70.15;101084.09;6148628;23;20022;-84
2021/07/12 17:16:31;;;;;;;13.45;8.45;;;;;;;21.35;70.24;101085.88;6147448;23;20100;-85
2021/07/12 17:18:57;;;;;;;20.98;10.02;;;;;;;21.08;70.54;101085.63;6146790;23;20005;-83
2021/07/12 17:21:44;;;;;;;18.35;8.98;;;;;;;20.95;71.25;101087.69;6147048;23;20100;-80
2021/07/12 17:24:48;;;;;;;14.60;9.73;;;;;;;20.81;71.43;101090.69;6150060;23;20503;-84
2021/07/12 17:34:58;;;;;;;;;;;;;;;;;;;;;
2021/07/12 17:37:22;;;;;;;17.23;9.10;;;;;;;20.50;72.90;101090.44;6119698;23;20048;-83
2021/07/12 17:40:34;;;;;;;11.35;8.40;;;;;;;20.43;73.09;101079.00;6148768;23;20388;-87
2021/07/12 17:43:10;;;;;;;19.27;9.23;;;;;;;20.41;73.34;101080.81;6147843;23;20010;-85
2021/07/12 17:49:47;;;;;;;16.00;8.77;;;;;;;20.35;73.44;101068.44;6149196;23;20051;-85
2021/07/12 17:52:52;;;;;;;16.92;9.80;;;;;;;20.32;73.80;101071.19;6147382;23;20009;-85
2021/07/12 17:56:06;;;;;;;24.20;10.57;;;;;;;20.27;74.28;101066.84;6129344;23;20033;-82
2021/07/12 17:58:51;;;;;;;;;;;;;;;;;;;;;
2021/07/12 18:02:16;;;;;;;12.73;9.20;;;;;;;20.19;73.26;101059.84;6149610;23;20017;-84
2021/07/12 18:04:59;;;;;;;15.05;8.38;;;;;;;20.21;74.04;101066.06;5979964;23;20328;-84
2021/07/12 18:11:52;;;;;;;16.40;10.23;;;;;;;20.21;74.62;101071.41;5973688;24;20405;-83
2021/07/12 18:15:03;;;;;;;16.85;9.18;;;;;;;20.28;74.08;101071.28;6050889;23;20693;-81
2021/07/12 18:17:47;;;;;;;14.30;10.05;;;;;;;20.26;74.26;101079.31;6058871;23;20473;-84
2021/07/12 18:24:41;;;;;;;16.58;10.82;;;;;;;20.19;74.60;101088.38;6037969;23;20049;-85
2021/07/12 18:27:07;;;;;;;19.15;13.25;;;;;;;20.08;76.84;101088.59;6058942;23;20014;-82
2021/07/12 18:29:35;;;;;;;19.92;14.73;;;;;;;19.91;78.25;101093.34;6060019;23;20025;-86
2021/07/12 18:32:23;;;;;;;20.60;15.32;;;;;;;19.64;80.37;101103.56;6059773;23;20022;-84
2021/07/12 18:35:29;;;;;;;21.08;16.67;;;;;;;19.53;81.43;101107.31;6090434;23;20009;-82
2021/07/12 18:37:54;;;;;;;29.10;19.10;;;;;;;19.34;83.15;101103.16;6148314;23;20013;-80
2021/07/12 18:40:22;;;;;;;32.30;20.02;;;;;;;19.23;83.69;101097.13;6150742;23;20302;-87
2021/07/12 18:42:48;;;;;;;26.38;18.85;;;;;;;19.08;84.27;101104.44;6148813;23;20429;-83
2021/07/12 18:45:23;;;;;;;31.23;21.80;;;;;;;18.97;85.04;101095.72;6148463;23;20033;-81
2021/07/12 18:47:48;;;;;;;33.58;22.98;;;;;;;18.90;85.15;101096.72;6152692;23;20088;-87
2021/07/12 18:50:16;;;;;;;36.25;23.60;;;;;;;18.85;85.76;101100.28;6151348;23;20028;-77
2021/07/12 18:52:42;;;;;;;33.83;23.00;;;;;;;18.79;86.66;101100.38;6151068;23;20613;-81
2021/07/12 18:55:10;;;;;;;34.97;22.98;;;;;;;18.75;86.81;101101.31;6149601;23;20005;-82
2021/07/12 18:57:37;;;;;;;32.13;22.52;;;;;;;18.74;86.71;101104.88;6119860;23;20026;-84
2021/07/12 19:00:24;;;;;;;29.27;23.10;;;;;;;18.76;86.77;101112.84;6120405;23;20014;-84
2021/07/12 19:02:50;;;;;;;37.20;25.98;;;;;;;18.71;87.08;101110.28;6119018;23;20014;-88
2021/07/12 19:05:16;;;;;;;37.55;24.70;;;;;;;18.68;87.46;101099.66;6093026;23;20014;-78
2021/07/12 19:07:41;;;;;;;35.00;23.15;;;;;;;18.65;87.56;101107.66;6118600;23;20437;-79
2021/07/12 19:10:08;;;;;;;33.08;23.52;;;;;;;18.63;87.26;101098.81;6118252;23;20005;-80
2021/07/12 19:12:33;;;;;;;41.42;23.90;;;;;;;18.64;87.37;101095.25;6119063;23;20022;-85
2021/07/12 19:15:21;;;;;;;38.92;24.02;;;;;;;18.59;87.78;101083.78;6118748;23;20496;-82
2021/07/12 19:17:48;;;;;;;38.30;24.58;;;;;;;18.56;88.02;101089.13;6117889;23;20018;-85
2021/07/12 19:20:35;;;;;;;35.08;22.80;;;;;;;18.52;87.91;101083.84;6119278;23;20030;-82
2021/07/12 19:23:21;;;;;;;36.10;23.65;;;;;;;18.52;88.06;101088.31;6118591;23;20658;-81
2021/07/12 19:25:46;;;;;;;37.22;25.75;;;;;;;18.49;88.62;101081.22;6119753;23;20010;-85
2021/07/12 19:28:17;;;;;;;41.05;26.20;;;;;;;18.51;88.31;101086.53;6118364;23;20484;-82
2021/07/12 19:31:03;;;;;;;44.55;26.20;;;;;;;18.50;88.43;101083.00;6119233;23;20041;-85
2021/07/12 19:33:34;;;;;;;36.35;25.42;;;;;;;18.52;88.40;101088.31;6116454;23;20069;-81
2021/07/12 19:36:00;;;;;;;43.78;25.45;;;;;;;18.51;88.52;101086.53;6117913;23;20403;-78
2021/07/12 19:38:27;;;;;;;41.72;25.85;;;;;;;18.50;88.63;101083.00;6116709;23;20012;-81
2021/07/12 19:41:02;;;;;;;40.47;26.58;;;;;;;18.52;88.82;101081.16;6119859;23;20088;-82
2021/07/12 19:44:04;;;;;;;43.85;25.92;;;;;;;18.51;88.77;101079.41;6118292;23;20006;-81
2021/07/12 19:46:30;;;;;;;42.85;26.08;;;;;;;18.50;88.97;101084.75;6120905;23;20040;-78
2021/07/12 19:48:55;;;;;;;35.70;26.27;;;;;;;18.51;88.81;101087.41;6125685;23;20005;-78
2021/07/12 19:51:22;;;;;;;39.92;25.75;;;;;;;18.50;88.66;101090.09;6126060;23;20005;-75
2021/07/12 19:53:49;;;;;;;39.08;26.52;;;;;;;18.49;88.86;101088.34;6124396;23;20002;-75
2021/07/12 19:56:17;;;;;;;38.90;27.40;;;;;;;18.47;88.67;101087.47;6126191;23;20006;-78
2021/07/12 19:59:05;;;;;;;43.45;27.95;;;;;;;18.46;89.05;101083.94;6126881;23;20014;-83
2021/07/12 20:01:31;;;;;;;39.55;27.95;;;;;;;18.46;89.15;101083.94;6128549;23;20056;-85
2021/07/12 20:04:28;;;;;;;44.03;30.45;;;;;;;18.46;89.32;101091.94;6119454;23;20426;-92
2021/07/12 20:06:56;;;;;;;47.70;30.20;;;;;;;18.46;89.48;101099.03;6126609;23;20378;-86
2021/07/12 20:09:21;;;;;;;45.33;31.95;;;;;;;18.49;89.38;101101.66;6119707;23;20101;-75
2021/07/12 20:11:47;;;;;;;46.88;31.77;;;;;;;18.47;89.72;101106.13;6120011;23;20100;-86
2021/07/12 20:14:13;;;;;;;48.83;31.27;;;;;;;18.49;89.54;101107.88;6119931;23;20002;-82
2021/07/12 20:16:42;;;;;;;50.28;32.88;;;;;;;18.50;89.27;101104.31;6118848;23;20458;-83
2021/07/12 20:19:27;;;;;;;50.72;32.90;;;;;;;18.51;89.65;101103.38;6120921;23;20064;-83
2021/07/12 20:21:56;;;;;;;56.30;35.88;;;;;;;18.47;89.49;101107.00;6127119;23;20137;-84
2021/07/12 20:24:27;;;;;;;55.63;35.85;;;;;;;18.45;89.74;101108.81;6125596;23;20010;-83
2021/07/12 20:26:53;;;;;;;57.15;37.47;;;;;;;18.44;89.63;101112.38;6099951;23;20009;-82
2021/07/12 20:29:19;;;;;;;56.95;37.83;;;;;;;18.43;90.13;101115.91;6125239;23;20307;-81
2021/07/12 20:31:44;;;;;;;62.03;40.25;;;;;;;18.43;89.84;101123.91;6125169;23;20053;-85
2021/07/12 20:34:10;;;;;;;61.40;40.80;;;;;;;18.44;90.06;101114.16;6124134;23;20057;-84
2021/07/12 20:36:53;;;;;;;73.07;43.33;;;;;;;18.43;90.06;101113.25;6124328;23;20002;-82
2021/07/12 20:39:20;;;;;;;75.33;44.50;;;;;;;18.43;90.37;101110.59;6124301;23;20006;-85
2021/07/12 20:42:13;;;;;;;75.07;45.85;;;;;;;18.43;90.49;101110.59;6125331;23;20456;-83
2021/07/12 20:45:21;;;;;;;70.25;44.15;;;;;;;18.45;90.35;101115.91;6125809;23;20110;-81
2021/07/12 20:47:50;;;;;;;71.32;45.88;;;;;;;18.44;90.23;101114.16;6126555;23;20031;-84
2021/07/12 20:50:23;;;;;;;75.20;45.92;;;;;;;18.44;90.19;101114.16;6127059;23;20021;-79
2021/07/12 20:53:08;;;;;;;78.03;47.13;;;;;;;18.45;90.36;101113.22;6100905;23;20014;-83
2021/07/12 20:55:56;;;;;;;76.25;45.83;;;;;;;18.44;90.13;101117.69;6125019;23;20426;-82
2021/07/12 20:58:47;;;;;;;64.97;43.75;;;;;;;18.47;90.07;101117.66;6125241;23;20310;-84
2021/07/12 21:01:17;;;;;;;62.53;41.70;;;;;;;18.52;89.80;101117.63;6126662;23;20024;-86
2021/07/12 21:04:13;;;;;;;56.38;39.17;;;;;;;18.58;89.17;101125.50;6126567;23;20033;-82
2021/07/12 21:07:21;;;;;;;60.17;39.40;;;;;;;18.61;89.50;101129.94;6125622;23;20053;-82
2021/07/12 21:10:27;;;;;;;63.20;40.97;;;;;;;18.57;89.34;101133.53;6126847;23;20010;-82
2021/07/12 21:13:43;;;;;;;;;;;;;;;;;;;;;
2021/07/12 21:16:38;;;;;;;65.68;42.72;;;;;;;18.50;89.74;101154.94;6122917;23;20013;-82
2021/07/12 21:19:47;;;;;;;71.85;45.50;;;;;;;18.50;90.10;101154.94;6124794;23;20014;-83
2021/07/12 21:22:35;;;;;;;60.83;40.60;;;;;;;18.53;89.80;101154.91;6122725;23;20441;-84
2021/07/12 21:25:02;;;;;;;75.28;46.97;;;;;;;18.51;90.05;101156.69;6122981;23;20002;-86
2021/07/12 21:27:48;;;;;;;72.70;45.63;;;;;;;18.47;89.92;101154.09;6122212;23;20021;-84
2021/07/12 21:30:20;;;;;;;76.53;48.33;;;;;;;18.41;90.21;101154.13;6118023;23;20014;-86
2021/07/12 21:32:56;;;;;;;77.78;49.40;;;;;;;18.36;90.34;101159.53;6118641;23;20014;-80
2021/07/12 21:36:06;;;;;;;81.28;48.97;;;;;;;18.32;90.38;101156.00;6122879;23;20445;-81
2021/07/12 21:45:39;;;;;;;81.03;46.95;;;;;;;18.15;90.87;101153.53;6095286;23;20052;-82
2021/07/12 21:48:10;;;;;;;79.40;45.10;;;;;;;18.14;90.97;101161.53;6121575;23;20016;-81
2021/07/12 21:50:38;;;;;;;77.03;45.22;;;;;;;18.13;90.97;101157.97;6122742;23;20002;-81
2021/07/12 21:53:04;;;;;;;69.25;42.35;;;;;;;18.13;90.65;101152.66;6121509;23;20009;-80
2021/07/12 21:55:32;;;;;;;60.45;38.05;;;;;;;18.11;90.85;101156.22;6121121;23;20010;-80
2021/07/12 21:57:57;;;;;;;54.17;36.25;;;;;;;18.08;90.47;101153.59;6122299;23;20006;-81
2021/07/12 22:00:29;;;;;;;54.80;36.03;;;;;;;18.03;90.62;101156.31;6121918;23;20025;-82
2021/07/12 22:03:03;;;;;;;48.15;34.47;;;;;;;18.01;90.29;101150.09;6122809;23;20021;-81
2021/07/12 22:05:29;;;;;;;46.25;32.05;;;;;;;17.98;90.16;101155.47;6122616;23;20429;-82
2021/07/12 22:07:56;;;;;;;45.90;32.38;;;;;;;17.93;89.90;101155.50;6120542;23;20444;-81
2021/07/12 22:10:27;;;;;;;44.15;31.27;;;;;;;17.91;90.14;101164.38;6121002;23;20452;-79
2021/07/12 22:12:53;;;;;;;45.03;29.55;;;;;;;17.87;90.21;101169.72;6120870;23;20009;-80
2021/07/12 22:15:19;;;;;;;43.50;30.33;;;;;;;17.89;89.74;101175.03;6095319;23;20029;-82
2021/07/12 22:17:48;;;;;;;43.47;31.40;;;;;;;17.92;89.54;101172.38;6118297;23;20001;-79
2021/07/12 22:20:27;;;;;;;44.97;32.33;;;;;;;17.90;89.84;101162.63;6119181;23;20021;-83
2021/07/12 22:23:11;;;;;;;43.15;30.70;;;;;;;17.84;89.65;101164.41;6117966;23;20013;-83
2021/07/12 22:25:39;;;;;;;45.25;31.23;;;;;;;17.78;89.58;101159.13;6120990;23;20006;-82
2021/07/12 22:28:06;;;;;;;47.83;30.55;;;;;;;17.72;89.66;101163.66;6119695;23;20033;-80
2021/07/12 22:30:35;;;;;;;47.38;29.27;;;;;;;17.63;89.75;101165.47;6117994;23;20104;-81
2021/07/12 22:33:04;;;;;;;41.90;30.40;;;;;;;17.58;90.10;101166.41;6120377;23;20018;-79
2021/07/12 22:35:32;;;;;;;44.38;28.63;;;;;;;17.53;90.22;101169.97;6120417;23;20132;-79
2021/07/12 22:37:59;;;;;;;40.10;28.13;;;;;;;17.51;90.34;101174.44;6119758;23;20077;-81
2021/07/12 22:40:24;;;;;;;40.50;28.75;;;;;;;17.51;90.02;101179.75;6119815;23;20006;-80
2021/07/12 22:42:50;;;;;;;40.17;28.90;;;;;;;17.47;90.38;101180.69;6120328;23;20389;-78
2021/07/12 22:45:19;;;;;;;40.80;29.35;;;;;;;17.44;90.36;101179.81;6119603;23;20006;-80
2021/07/12 22:47:44;;;;;;;44.92;29.83;;;;;;;17.40;90.55;101178.94;6117156;23;20098;-77
2021/07/12 22:50:14;;;;;;;42.83;29.80;;;;;;;17.34;90.81;101179.84;6116822;23;20414;-79
2021/07/12 22:52:40;;;;;;;53.38;31.63;;;;;;;17.29;90.71;101191.41;6117892;23;20025;-78
2021/07/12 22:55:45;;;;;;;48.97;31.00;;;;;;;17.24;90.73;101175.50;6115257;23;20421;-81
2021/07/12 23:01:44;;;;;;;;;;;;;;;;;;;;;
2021/07/12 23:05:07;;;;;;;65.32;38.05;;;;;;;17.16;91.83;101159.59;6117915;23;20065;-82
2021/07/12 23:10:31;;;;;;;59.17;37.13;;;;;;;17.25;92.28;101149.78;6076004;23;20548;-83
2021/07/12 23:12:57;;;;;;;59.10;36.25;;;;;;;17.28;92.17;101152.41;6114397;23;20058;-82
2021/07/12 23:15:49;;;;;;;63.90;38.03;;;;;;;17.32;92.08;101156.81;6119620;23;20009;-81
2021/07/12 23:19:05;;;;;;;;;;;;;;;;;;;;;
2021/07/12 23:21:33;;;;;;;72.00;39.88;;;;;;;17.37;92.46;101139.06;6114838;23;20114;-80
2021/07/12 23:24:15;;;;;;;58.05;37.35;;;;;;;17.38;92.19;101146.16;6113396;23;20002;-82
2021/07/12 23:27:04;;;;;;;58.72;35.47;;;;;;;17.36;92.30;101145.25;6116915;23;20042;-81
2021/07/12 23:29:39;;;;;;;;;;;;;;;;;;;;;
2021/07/12 23:32:10;;;;;;;54.15;33.40;;;;;;;17.28;91.72;101152.41;6108740;23;20093;-81
2021/07/12 23:34:37;;;;;;;52.63;34.15;;;;;;;17.22;91.37;101150.69;6116413;23;20022;-83
2021/07/12 23:37:38;;;;;;;52.83;32.70;;;;;;;17.17;91.33;101155.13;6115372;23;20008;-81
2021/07/12 23:40:51;;;;;;;52.08;34.03;;;;;;;17.09;91.20;101144.56;6114652;23;20022;-82
2021/07/12 23:43:19;;;;;;;53.25;32.47;;;;;;;17.03;91.22;101147.25;6119678;23;20010;-83
2021/07/12 23:46:18;;;;;;;57.95;35.15;;;;;;;16.97;91.66;101144.59;6123721;23;20094;-84
2021/07/12 23:48:47;;;;;;;59.78;34.60;;;;;;;16.92;91.49;101143.78;6121026;23;20014;-83
2021/07/12 23:51:14;;;;;;;61.30;36.63;;;;;;;16.88;91.73;101152.63;6094056;23;20540;-82
2021/07/12 23:53:59;;;;;;;64.68;36.40;;;;;;;16.81;91.78;101139.34;6121793;23;20030;-80
2021/07/12 23:57:00;;;;;;;;;;;;;;;;;;;;;
2021/07/12 23:59:57;;;;;;;53.95;33.92;;;;;;;16.71;91.70;101128.75;6120452;23;20441;-82
